Oxford, United Kingdom
Current Conditions -  °F | °C
As of 10:20 PM on Friday 24 Oct 2014 (Local Time) from EGTK Reporting Station
Overcast Overcast  
Wind Chill: 46°   Ceiling: 3800
Heat Index: 46°   Visibility: 6mi
Dew Point: 46°   Wind: 2mph
Humidity: 100%   Direction: 250°WSW
Pressure: 29.97"   Gusts: NA
Location:  51.75°N, 1.26°W
Report Text: EGTK 242120Z 25002KT 9999 BKN038 OVC043 08/08 Q1015
Loading
Personal Weather Stations






























Interactive Weather Map
Tropical Storm Tracking
New forecast layout! Learn more

10-Day Weather Forecast

Advertisements
Track Severe Weather on mobile